createdAt,value
2023-05-01T00:02:12.340Z,101924.47
2023-05-01T00:04:39.282Z,101921.03
2023-05-01T00:07:06.158Z,101917.53
2023-05-01T00:09:33.365Z,101917.91
2023-05-01T00:12:00.314Z,101920.06
2023-05-01T00:14:27.240Z,101918.16
2023-05-01T00:16:54.188Z,101921.41
2023-05-01T00:19:21.587Z,101912.50
2023-05-01T00:21:48.929Z,101909.44
2023-05-01T00:24:17.317Z,101905.22
2023-05-01T00:26:44.376Z,101903.88
2023-05-01T00:29:11.396Z,101893.13
2023-05-01T00:31:38.383Z,101896.78
2023-05-01T00:34:05.378Z,101895.44
2023-05-01T00:36:32.851Z,101889.47
2023-05-01T00:38:59.856Z,101888.91
2023-05-01T00:41:26.831Z,101885.09
2023-05-01T00:43:54.399Z,101882.75
2023-05-01T00:46:21.868Z,101882.00
2023-05-01T00:48:48.928Z,101883.56
2023-05-01T00:51:16.041Z,101884.38
2023-05-01T00:53:43.629Z,101869.41
2023-05-01T00:56:11.748Z,101874.53
2023-05-01T00:58:39.393Z,101871.25
2023-05-01T01:01:08.986Z,101862.47
2023-05-01T01:03:36.309Z,101863.53
2023-05-01T01:06:11.791Z,101857.28
2023-05-01T01:08:42.777Z,101847.03
2023-05-01T01:11:19.918Z,101846.25
2023-05-01T01:14:00.014Z,101840.97
2023-05-01T01:16:36.106Z,101839.00
2023-05-01T01:19:20.887Z,101828.06
2023-05-01T01:21:56.043Z,101822.84
2023-05-01T01:24:47.997Z,101825.00
2023-05-01T01:27:23.618Z,101810.31
2023-05-01T01:30:02.790Z,101813.13
2023-05-01T01:32:31.796Z,101810.16
2023-05-01T01:35:04.920Z,101804.09
2023-05-01T01:37:41.866Z,101795.81
2023-05-01T01:40:13.447Z,101795.78
2023-05-01T01:43:06.828Z,101791.97
2023-05-01T01:45:41.219Z,101787.63
2023-05-01T01:48:12.032Z,101783.44
2023-05-01T01:50:39.927Z,101775.16
2023-05-01T01:53:10.337Z,101776.34
2023-05-01T01:55:38.324Z,101779.13
2023-05-01T01:58:07.034Z,101774.00
2023-05-01T02:00:36.144Z,101768.03
2023-05-01T02:03:04.030Z,101767.81
2023-05-01T02:05:32.174Z,101757.72
2023-05-01T02:07:59.414Z,101758.56
2023-05-01T02:10:27.969Z,101753.91
2023-05-01T02:12:57.026Z,101757.25
2023-05-01T02:15:24.719Z,101752.75
2023-05-01T02:17:52.826Z,101743.50
2023-05-01T02:20:21.657Z,101730.75
2023-05-01T02:22:49.749Z,101739.66
2023-05-01T02:25:17.020Z,101729.03
2023-05-01T02:28:01.311Z,101722.47
2023-05-01T02:30:28.662Z,101722.94
2023-05-01T02:32:56.567Z,101716.09
2023-05-01T02:35:23.653Z,101714.31
2023-05-01T02:37:51.521Z,101705.19
2023-05-01T02:40:18.928Z,101702.69
2023-05-01T02:42:47.210Z,101703.03
2023-05-01T02:45:20.784Z,101709.84
2023-05-01T02:47:51.859Z,101709.75
2023-05-01T02:50:19.933Z,101710.16
2023-05-01T02:52:47.685Z,101728.78
2023-05-01T02:55:37.883Z,101720.16
2023-05-01T02:58:04.920Z,101717.19
2023-05-01T03:00:31.788Z,101713.06
2023-05-01T03:02:58.909Z,101701.03
2023-05-01T03:05:25.840Z,101696.66
2023-05-01T03:07:53.013Z,101699.44
2023-05-01T03:10:19.945Z,101700.78
2023-05-01T03:12:46.991Z,101705.50
2023-05-01T03:15:13.877Z,101702.09
2023-05-01T03:17:40.764Z,101695.25
2023-05-01T03:20:09.663Z,101692.19
2023-05-01T03:22:36.952Z,101691.69
2023-05-01T03:25:06.642Z,101683.19
2023-05-01T03:27:33.807Z,101692.63
2023-05-01T03:30:00.651Z,101684.72
2023-05-01T03:32:30.005Z,101676.22
2023-05-01T03:34:57.878Z,101673.91
2023-05-01T03:37:26.464Z,101674.97
2023-05-01T03:39:54.343Z,101668.59
2023-05-01T03:42:41.773Z,101663.63
2023-05-01T03:45:17.114Z,101666.94
2023-05-01T03:47:44.079Z,101663.69
2023-05-01T03:50:11.334Z,101658.06
2023-05-01T03:52:41.016Z,101656.69
2023-05-01T03:55:09.004Z,101663.69
2023-05-01T03:57:40.851Z,101659.34
2023-05-01T04:00:09.794Z,101658.50
2023-05-01T04:02:42.614Z,101665.19
2023-05-01T04:05:15.182Z,101652.25
2023-05-01T04:07:47.798Z,101658.19
2023-05-01T04:10:15.016Z,101665.25
2023-05-01T04:12:48.977Z,101665.38
2023-05-01T04:15:16.536Z,101651.81
2023-05-01T04:17:44.233Z,101654.91
2023-05-01T04:20:11.476Z,101652.63
2023-05-01T04:22:38.847Z,101651.16
2023-05-01T04:25:06.732Z,101651.94
2023-05-01T04:27:33.721Z,101650.81
2023-05-01T04:30:00.962Z,101644.91
2023-05-01T04:32:29.419Z,101645.38
2023-05-01T04:34:56.465Z,101649.44
2023-05-01T04:37:23.376Z,101642.94
2023-05-01T04:39:51.283Z,101651.94
2023-05-01T04:42:20.705Z,101652.59
2023-05-01T04:44:47.924Z,101643.59
2023-05-01T04:47:15.394Z,101634.94
2023-05-01T04:49:42.438Z,101644.91
2023-05-01T04:52:09.582Z,101638.69
2023-05-01T04:54:58.050Z,101643.44
2023-05-01T04:57:27.564Z,101646.69
2023-05-01T04:59:54.657Z,101635.69
2023-05-01T05:02:21.931Z,101626.53
2023-05-01T05:04:49.096Z,101630.50
2023-05-01T05:07:17.480Z,101633.66
2023-05-01T05:10:08.014Z,101632.16
2023-05-01T05:12:35.725Z,101632.56
2023-05-01T05:15:02.656Z,101633.06
2023-05-01T05:17:30.799Z,101633.84
2023-05-01T05:19:58.123Z,101631.56
2023-05-01T05:22:26.345Z,101633.72
2023-05-01T05:25:19.399Z,101633.63
2023-05-01T05:27:46.369Z,101630.16
2023-05-01T05:30:13.523Z,101634.69
2023-05-01T05:32:41.063Z,101635.97
2023-05-01T05:35:08.404Z,101624.44
2023-05-01T05:37:35.432Z,101628.66
2023-05-01T05:40:02.331Z,101618.44
2023-05-01T05:42:34.866Z,101623.06
2023-05-01T05:45:06.015Z,101621.44
2023-05-01T05:47:33.402Z,101623.53
2023-05-01T05:50:00.927Z,101626.56
2023-05-01T05:52:27.927Z,101624.34
2023-05-01T05:54:55.957Z,101623.53
2023-05-01T05:57:23.083Z,101619.59
2023-05-01T05:59:51.561Z,101619.22
2023-05-01T06:02:22.775Z,101616.75
2023-05-01T06:04:50.022Z,101611.53
2023-05-01T06:07:19.168Z,101610.94
2023-05-01T06:09:46.479Z,101614.06
2023-05-01T06:12:13.480Z,101610.81
2023-05-01T06:14:41.318Z,101608.16
2023-05-01T06:17:09.279Z,101607.69
2023-05-01T06:19:37.329Z,101605.28
2023-05-01T06:22:08.480Z,101616.53
2023-05-01T06:24:42.119Z,101610.56
2023-05-01T06:27:11.757Z,101614.31
2023-05-01T06:29:38.775Z,101606.72
2023-05-01T06:32:05.987Z,101603.22
2023-05-01T06:34:33.018Z,101611.72
2023-05-01T06:37:00.039Z,101600.34
2023-05-01T06:39:26.877Z,101609.16
2023-05-01T06:41:54.056Z,101603.44
2023-05-01T06:44:32.754Z,101604.00
2023-05-01T06:47:01.905Z,101605.94
2023-05-01T06:49:29.195Z,101602.94
2023-05-01T06:51:56.159Z,101602.69
2023-05-01T06:54:23.119Z,101597.28
2023-05-01T06:56:50.398Z,101598.00
2023-05-01T06:59:17.264Z,101599.25
2023-05-01T07:01:44.336Z,101605.13
2023-05-01T07:04:11.204Z,101601.63
2023-05-01T07:06:38.266Z,101607.84
2023-05-01T07:09:05.396Z,101602.25
2023-05-01T07:11:33.040Z,101597.91
2023-05-01T07:14:01.080Z,101597.47
2023-05-01T07:16:28.024Z,101598.84
2023-05-01T07:18:55.028Z,101598.84
2023-05-01T07:21:21.868Z,101595.03
2023-05-01T07:23:48.870Z,101602.28
2023-05-01T07:26:15.701Z,101591.47
2023-05-01T07:28:42.548Z,101587.59
2023-05-01T07:31:12.667Z,101593.09
2023-05-01T07:33:39.712Z,101587.63
2023-05-01T07:36:06.737Z,101589.63
2023-05-01T07:38:33.698Z,101592.13
2023-05-01T07:41:00.575Z,101597.06
2023-05-01T07:43:27.617Z,101590.06
2023-05-01T07:46:00.493Z,101587.34
2023-05-01T07:48:28.618Z,101588.22
2023-05-01T07:50:55.674Z,101580.41
2023-05-01T07:53:23.002Z,101592.13
2023-05-01T07:55:49.988Z,101592.38
2023-05-01T07:58:19.574Z,101585.00
2023-05-01T08:00:46.601Z,101592.72
2023-05-01T08:03:13.666Z,101597.25
2023-05-01T08:05:42.062Z,101595.41
2023-05-01T08:08:09.907Z,101586.66
2023-05-01T08:10:37.227Z,101598.72
2023-05-01T08:13:04.105Z,101595.94
2023-05-01T08:15:31.384Z,101594.84
2023-05-01T08:17:58.316Z,101599.06
2023-05-01T08:20:25.448Z,101588.78
2023-05-01T08:22:52.277Z,101596.84
2023-05-01T08:25:19.393Z,101590.84
2023-05-01T08:27:46.551Z,101591.69
2023-05-01T08:30:13.567Z,101600.91
2023-05-01T08:32:40.482Z,101593.63
2023-05-01T08:35:29.557Z,101606.06
2023-05-01T08:37:56.481Z,101595.41
2023-05-01T08:40:24.389Z,101605.88
2023-05-01T08:42:51.518Z,101601.03
2023-05-01T08:45:19.936Z,101594.41
2023-05-01T08:47:48.219Z,101593.72
2023-05-01T08:50:17.887Z,101591.75
2023-05-01T08:52:45.363Z,101595.63
2023-05-01T08:55:15.086Z,101598.41
2023-05-01T08:57:46.851Z,101595.34
2023-05-01T09:00:21.321Z,101591.72
2023-05-01T09:02:50.127Z,101584.19
2023-05-01T09:05:18.810Z,101592.28
2023-05-01T09:07:46.644Z,101591.72
2023-05-01T09:10:15.504Z,101591.50
2023-05-01T09:12:44.997Z,101589.41
2023-05-01T09:15:12.772Z,101602.31
2023-05-01T09:17:40.502Z,101596.09
2023-05-01T09:20:08.560Z,101602.06
2023-05-01T09:22:35.713Z,101602.19
2023-05-01T09:25:03.959Z,101599.50
2023-05-01T09:27:35.944Z,101606.75
2023-05-01T09:30:03.485Z,101609.97
2023-05-01T09:32:30.412Z,101610.06
2023-05-01T09:35:14.573Z,101611.88
2023-05-01T09:37:41.865Z,101615.59
2023-05-01T09:40:13.709Z,101621.22
2023-05-01T09:42:50.971Z,101614.06
2023-05-01T09:45:19.376Z,101617.75
2023-05-01T09:47:47.063Z,101613.44
2023-05-01T09:50:29.866Z,101619.56
2023-05-01T09:52:57.215Z,101620.72
2023-05-01T09:55:25.862Z,101621.22
2023-05-01T09:57:53.437Z,101616.78
2023-05-01T10:00:22.380Z,101622.28
2023-05-01T10:02:50.157Z,101628.94
2023-05-01T10:05:18.282Z,101639.28
2023-05-01T10:08:02.577Z,101632.66
2023-05-01T10:10:30.070Z,101635.69
2023-05-01T10:12:57.367Z,101637.28
2023-05-01T10:15:36.695Z,101633.06
2023-05-01T10:18:05.330Z,101642.31
2023-05-01T10:20:32.949Z,101642.41
2023-05-01T10:23:00.886Z,101639.94
2023-05-01T10:25:27.829Z,101646.44
2023-05-01T10:27:55.646Z,101648.84
2023-05-01T10:30:22.825Z,101648.09
2023-05-01T10:32:49.928Z,101654.03
2023-05-01T10:35:21.666Z,101659.25
2023-05-01T10:37:49.918Z,101656.63
2023-05-01T10:40:43.944Z,101655.94
2023-05-01T10:43:28.904Z,101660.59
2023-05-01T10:46:21.836Z,101658.06
2023-05-01T10:48:51.903Z,101658.59
2023-05-01T10:51:27.737Z,101657.66
2023-05-01T10:54:14.013Z,101666.56
2023-05-01T10:56:43.140Z,101666.22
2023-05-01T10:59:10.748Z,101664.78
2023-05-01T11:01:41.686Z,101668.88
2023-05-01T11:04:28.734Z,101669.63
2023-05-01T11:07:02.120Z,101671.16
2023-05-01T11:09:55.624Z,101672.06
2023-05-01T11:12:51.959Z,101677.94
2023-05-01T11:15:34.209Z,101678.38
2023-05-01T11:18:02.633Z,101680.13
2023-05-01T11:20:29.487Z,101688.16
2023-05-01T11:22:58.031Z,101692.44
2023-05-01T11:25:27.880Z,101685.84
2023-05-01T11:27:56.288Z,101682.97
2023-05-01T11:30:23.534Z,101688.19
2023-05-01T11:32:51.307Z,101688.81
2023-05-01T11:35:23.395Z,101695.84
2023-05-01T11:37:56.087Z,101689.00
2023-05-01T11:40:28.614Z,101687.28
2023-05-01T11:43:04.222Z,101688.41
2023-05-01T11:45:32.215Z,101687.16
2023-05-01T11:48:02.122Z,101680.81
2023-05-01T11:50:35.998Z,101670.44
2023-05-01T11:53:03.550Z,101668.28
2023-05-01T11:55:34.650Z,101666.38
2023-05-01T11:58:02.223Z,101659.44
2023-05-01T12:00:35.009Z,101669.41
2023-05-01T12:03:04.151Z,101671.88
2023-05-01T12:05:32.496Z,101676.22
2023-05-01T12:08:21.410Z,101672.84
2023-05-01T12:10:50.843Z,101665.34
2023-05-01T12:13:18.452Z,101665.69
2023-05-01T12:15:51.310Z,101675.31
2023-05-01T12:18:18.673Z,101669.03
2023-05-01T12:20:47.726Z,101668.13
2023-05-01T12:23:18.662Z,101670.19
2023-05-01T12:25:46.210Z,101662.28
2023-05-01T12:28:15.570Z,101669.06
2023-05-01T12:30:43.837Z,101663.69
2023-05-01T12:33:14.825Z,101673.38
2023-05-01T12:35:45.387Z,101663.63
2023-05-01T12:38:20.008Z,101658.78
2023-05-01T12:40:58.446Z,101656.66
2023-05-01T12:43:32.188Z,101663.00
2023-05-01T12:45:59.692Z,101657.97
2023-05-01T12:48:26.987Z,101664.56
2023-05-01T12:50:57.238Z,101659.16
2023-05-01T12:53:25.913Z,101664.81
2023-05-01T12:55:57.659Z,101659.88
2023-05-01T12:58:35.288Z,101654.69
2023-05-01T13:01:02.563Z,101660.00
2023-05-01T13:03:30.901Z,101645.97
2023-05-01T13:06:03.541Z,101649.69
2023-05-01T13:08:37.129Z,101645.53
2023-05-01T13:11:17.464Z,101655.63
2023-05-01T13:13:45.434Z,101644.31
2023-05-01T13:16:16.362Z,101649.78
2023-05-01T13:18:48.851Z,101653.72
2023-05-01T13:21:17.496Z,101640.81
2023-05-01T13:24:05.206Z,101646.81
2023-05-01T13:26:35.524Z,101646.75
2023-05-01T13:29:04.200Z,101649.94
2023-05-01T13:31:32.050Z,101642.75
2023-05-01T13:33:59.660Z,101639.94
2023-05-01T13:36:32.388Z,101649.09
2023-05-01T13:38:59.566Z,101655.63
2023-05-01T13:41:27.873Z,101652.78
2023-05-01T13:43:56.750Z,101654.97
2023-05-01T13:46:25.060Z,101656.19
2023-05-01T13:48:52.284Z,101656.50
2023-05-01T13:51:27.266Z,101665.50
2023-05-01T13:53:56.408Z,101648.94
2023-05-01T13:56:23.255Z,101652.59
2023-05-01T13:58:50.886Z,101648.53
2023-05-01T14:01:20.263Z,101656.25
2023-05-01T14:03:47.820Z,101650.09
2023-05-01T14:06:19.973Z,101648.19
2023-05-01T14:08:48.897Z,101648.56
2023-05-01T14:11:15.933Z,101651.44
2023-05-01T14:13:44.951Z,101654.03
2023-05-01T14:16:26.026Z,101642.88
2023-05-01T14:18:56.186Z,101648.06
2023-05-01T14:21:24.714Z,101646.41
2023-05-01T14:23:55.192Z,101641.47
2023-05-01T14:26:24.222Z,101637.09
2023-05-01T14:28:51.286Z,101646.44
2023-05-01T14:31:31.378Z,101639.75
2023-05-01T14:33:59.910Z,101638.78
2023-05-01T14:36:28.627Z,101636.66
2023-05-01T14:39:04.100Z,101627.13
2023-05-01T14:41:34.596Z,101630.13
2023-05-01T14:44:03.940Z,101637.53
2023-05-01T14:46:36.381Z,101635.63
2023-05-01T14:49:03.452Z,101642.38
2023-05-01T14:51:32.424Z,101639.22
2023-05-01T14:53:59.697Z,101646.03
2023-05-01T14:56:26.601Z,101648.63
2023-05-01T14:58:53.624Z,101652.50
2023-05-01T15:01:20.752Z,101660.25
2023-05-01T15:03:47.915Z,101666.00
2023-05-01T15:06:14.892Z,101672.44
2023-05-01T15:08:42.085Z,101671.13
2023-05-01T15:11:09.004Z,101673.91
2023-05-01T15:13:36.656Z,101673.66
2023-05-01T15:16:04.050Z,101684.34
2023-05-01T15:18:31.503Z,101681.31
2023-05-01T15:20:58.354Z,101684.50
2023-05-01T15:23:27.404Z,101683.88
2023-05-01T15:25:55.037Z,101697.81
2023-05-01T15:28:22.261Z,101685.78
2023-05-01T15:30:49.098Z,101693.84
2023-05-01T15:33:18.733Z,101690.53
2023-05-01T15:35:47.032Z,101693.63
2023-05-01T15:38:14.098Z,101697.38
2023-05-01T15:40:43.719Z,101691.56
2023-05-01T15:43:10.781Z,101702.81
2023-05-01T15:45:43.362Z,101703.66
2023-05-01T15:48:13.853Z,101701.75
2023-05-01T15:50:41.076Z,101713.38
2023-05-01T15:53:08.786Z,101711.84
2023-05-01T15:55:36.858Z,101719.69
2023-05-01T15:58:03.834Z,101711.94
2023-05-01T16:00:31.333Z,101710.31
2023-05-01T16:02:58.326Z,101720.97
2023-05-01T16:05:25.692Z,101720.81
2023-05-01T16:07:55.921Z,101722.16
2023-05-01T16:10:23.468Z,101724.88
2023-05-01T16:12:51.247Z,101711.69
2023-05-01T16:15:18.426Z,101720.44
2023-05-01T16:17:46.013Z,101715.94
2023-05-01T16:20:14.684Z,101716.25
2023-05-01T16:22:42.900Z,101721.00
2023-05-01T16:25:10.890Z,101724.91
2023-05-01T16:27:44.876Z,101726.75
2023-05-01T16:30:16.392Z,101732.59
2023-05-01T16:32:44.852Z,101728.84
2023-05-01T16:35:17.722Z,101727.16
2023-05-01T16:37:44.822Z,101725.63
2023-05-01T16:40:17.180Z,101734.38
2023-05-01T16:42:54.495Z,101736.84
2023-05-01T16:45:22.005Z,101743.44
2023-05-01T16:47:49.140Z,101737.19
2023-05-01T16:50:17.189Z,101751.13
2023-05-01T16:52:44.112Z,101748.47
2023-05-01T16:55:11.398Z,101748.91
2023-05-01T16:57:38.227Z,101745.16
2023-05-01T17:00:05.981Z,101756.31
2023-05-01T17:02:33.947Z,101749.16
2023-05-01T17:05:02.574Z,101750.50
2023-05-01T17:07:30.007Z,101765.72
2023-05-01T17:09:56.931Z,101756.69
2023-05-01T17:12:24.154Z,101750.94
2023-05-01T17:14:53.858Z,101756.00
2023-05-01T17:17:21.558Z,101758.72
2023-05-01T17:19:48.627Z,101759.00
2023-05-01T17:22:15.677Z,101762.53
2023-05-01T17:24:42.460Z,101764.72
2023-05-01T17:27:09.483Z,101767.69
2023-05-01T17:29:36.394Z,101770.44
2023-05-01T17:32:04.642Z,101773.03
2023-05-01T17:34:31.733Z,101770.13
2023-05-01T17:36:58.625Z,101777.28
2023-05-01T17:39:27.073Z,101786.66
2023-05-01T17:41:54.109Z,101794.94
2023-05-01T17:44:21.149Z,101788.34
2023-05-01T17:46:48.097Z,101791.50
2023-05-01T17:49:15.089Z,101795.44
2023-05-01T17:51:42.696Z,101795.13
2023-05-01T17:54:10.722Z,101796.53
2023-05-01T17:56:37.689Z,101808.91
2023-05-01T17:59:04.882Z,101805.88
2023-05-01T18:01:31.855Z,101802.91
2023-05-01T18:03:58.835Z,101804.78
2023-05-01T18:06:26.078Z,101812.81
2023-05-01T18:08:52.857Z,101810.13
2023-05-01T18:11:19.847Z,101814.38
2023-05-01T18:13:48.235Z,101816.59
2023-05-01T18:16:15.984Z,101814.88
2023-05-01T18:18:43.086Z,101822.69
2023-05-01T18:21:10.244Z,101830.47
2023-05-01T18:23:37.355Z,101823.25
2023-05-01T18:26:04.167Z,101844.56
2023-05-01T18:28:31.758Z,101842.00
2023-05-01T18:30:58.682Z,101835.56
2023-05-01T18:33:25.696Z,101841.63
2023-05-01T18:35:53.031Z,101845.59
2023-05-01T18:38:19.857Z,101847.44
2023-05-01T18:40:47.836Z,101845.03
2023-05-01T18:43:14.659Z,101843.75
2023-05-01T18:45:41.642Z,101848.50
2023-05-01T18:48:08.849Z,101852.56
2023-05-01T18:50:36.096Z,101860.28
2023-05-01T18:53:03.334Z,101860.50
2023-05-01T18:55:30.389Z,101865.72
2023-05-01T18:57:57.204Z,101861.28
2023-05-01T19:00:26.307Z,101871.88
2023-05-01T19:02:53.219Z,101861.53
2023-05-01T19:05:20.497Z,101860.00
2023-05-01T19:07:47.501Z,101870.44
2023-05-01T19:10:14.567Z,101863.56
2023-05-01T19:12:42.256Z,101868.56
2023-05-01T19:15:09.939Z,101879.47
2023-05-01T19:17:36.903Z,101884.56
2023-05-01T19:20:04.568Z,101894.09
2023-05-01T19:22:31.536Z,101901.72
2023-05-01T19:25:00.277Z,101909.38
2023-05-01T19:27:27.212Z,101909.47
2023-05-01T19:29:54.790Z,101912.69
2023-05-01T19:32:23.314Z,101911.66
2023-05-01T19:34:50.636Z,101916.78
2023-05-01T19:37:17.654Z,101927.59
2023-05-01T19:39:44.864Z,101924.31
2023-05-01T19:42:12.028Z,101920.53
2023-05-01T19:44:39.086Z,101923.31
2023-05-01T19:47:06.276Z,101921.00
2023-05-01T19:49:33.100Z,101931.53
2023-05-01T19:52:00.510Z,101927.59
2023-05-01T19:54:27.333Z,101935.63
2023-05-01T19:56:55.308Z,101943.63
2023-05-01T19:59:22.090Z,101943.72
2023-05-01T20:01:49.171Z,101943.84
2023-05-01T20:04:16.376Z,101948.28
2023-05-01T20:06:43.475Z,101945.75
2023-05-01T20:09:10.435Z,101952.63
2023-05-01T20:11:37.403Z,101958.19
2023-05-01T20:14:04.211Z,101957.25
2023-05-01T20:16:31.276Z,101960.88
2023-05-01T20:18:58.136Z,101954.78
2023-05-01T20:21:25.102Z,101966.16
2023-05-01T20:23:52.477Z,101970.59
2023-05-01T20:26:19.431Z,101966.97
2023-05-01T20:28:47.780Z,101967.66
2023-05-01T20:31:14.776Z,101968.28
2023-05-01T20:33:41.720Z,101971.63
2023-05-01T20:36:11.445Z,101967.88
2023-05-01T20:38:43.292Z,101971.00
2023-05-01T20:41:10.425Z,101961.88
2023-05-01T20:43:38.838Z,101969.22
2023-05-01T20:46:05.956Z,101967.09
2023-05-01T20:48:33.185Z,101971.63
2023-05-01T20:51:00.071Z,101967.09
2023-05-01T20:53:26.958Z,101968.59
2023-05-01T20:55:53.788Z,101977.50
2023-05-01T20:58:20.866Z,101977.00
2023-05-01T21:00:48.105Z,101983.06
2023-05-01T21:03:15.498Z,101987.50
2023-05-01T21:05:42.436Z,101976.84
2023-05-01T21:08:09.324Z,101984.84
2023-05-01T21:10:36.944Z,101983.88
2023-05-01T21:13:04.028Z,101983.22
2023-05-01T21:15:32.100Z,101984.66
2023-05-01T21:17:59.138Z,101986.13
2023-05-01T21:20:35.436Z,101994.03
2023-05-01T21:23:02.718Z,101978.78
2023-05-01T21:25:31.860Z,101987.56
2023-05-01T21:28:03.798Z,101987.38
2023-05-01T21:30:33.807Z,101995.41
2023-05-01T21:33:02.006Z,101994.91
2023-05-01T21:35:30.211Z,101995.09
2023-05-01T21:37:57.980Z,101996.91
2023-05-01T21:40:25.502Z,102007.59
2023-05-01T21:42:54.045Z,101998.94
2023-05-01T21:45:20.984Z,102000.91
2023-05-01T21:47:51.384Z,102004.81
2023-05-01T21:50:21.473Z,102017.13
2023-05-01T21:52:49.834Z,102017.78
2023-05-01T21:55:19.297Z,102026.97
2023-05-01T21:57:46.639Z,102025.81
2023-05-01T22:00:14.176Z,102026.63
2023-05-01T22:02:42.996Z,102030.22
2023-05-01T22:05:11.096Z,102034.97
2023-05-01T22:07:41.500Z,102032.19
2023-05-01T22:10:09.858Z,102040.06
2023-05-01T22:12:36.869Z,102043.81
2023-05-01T22:15:03.960Z,102046.59
2023-05-01T22:17:30.898Z,102047.13
2023-05-01T22:19:57.859Z,102052.03
2023-05-01T22:22:25.027Z,102051.50
2023-05-01T22:24:52.337Z,102058.09
2023-05-01T22:27:19.350Z,102060.22
2023-05-01T22:29:46.201Z,102061.53
2023-05-01T22:32:13.392Z,102057.25
2023-05-01T22:34:40.281Z,102067.91
2023-05-01T22:37:07.421Z,102062.66
2023-05-01T22:39:36.291Z,102058.56
2023-05-01T22:42:03.995Z,102070.53
2023-05-01T22:44:33.395Z,102068.88
2023-05-01T22:47:00.307Z,102080.84
2023-05-01T22:49:32.152Z,102089.84
2023-05-01T22:51:59.151Z,102098.03
2023-05-01T22:54:26.012Z,102094.25
2023-05-01T22:56:53.132Z,102093.59
2023-05-01T22:59:20.060Z,102097.69
2023-05-01T23:01:47.128Z,102098.97
2023-05-01T23:04:14.391Z,102105.84
2023-05-01T23:06:41.756Z,102105.69
2023-05-01T23:09:08.633Z,102107.31
2023-05-01T23:11:35.587Z,102108.63
2023-05-01T23:14:02.385Z,102114.88
2023-05-01T23:16:32.490Z,102118.16
2023-05-01T23:18:59.408Z,102118.63
2023-05-01T23:21:26.348Z,102124.22
2023-05-01T23:23:53.167Z,102124.88
2023-05-01T23:26:29.527Z,102127.00
2023-05-01T23:28:57.247Z,102126.06
2023-05-01T23:31:25.953Z,102132.94
2023-05-01T23:33:53.462Z,102128.50
2023-05-01T23:36:21.121Z,102126.69
2023-05-01T23:38:48.191Z,102124.41
2023-05-01T23:41:15.347Z,102119.78
2023-05-01T23:43:42.556Z,102126.53
2023-05-01T23:46:09.559Z,102124.06
2023-05-01T23:48:37.119Z,102124.88
2023-05-01T23:51:04.485Z,102115.38
2023-05-01T23:53:31.597Z,102122.59
2023-05-01T23:55:58.546Z,102121.44
2023-05-01T23:58:25.640Z,102117.00
